createdAt,value
2019-02-21T00:00:26.197Z,30.87
2019-02-21T00:02:54.653Z,30.67
2019-02-21T00:05:23.111Z,27.33
2019-02-21T00:07:51.596Z,28.23
2019-02-21T00:10:20.116Z,27.60
2019-02-21T00:12:48.571Z,31.40
2019-02-21T00:15:17.263Z,26.30
2019-02-21T00:17:45.719Z,26.53
2019-02-21T00:20:14.166Z,31.57
2019-02-21T00:22:42.847Z,29.03
2019-02-21T00:25:11.302Z,28.27
2019-02-21T00:27:39.752Z,27.50
2019-02-21T00:30:08.931Z,29.50
2019-02-21T00:32:37.396Z,28.33
2019-02-21T00:35:05.919Z,27.23
2019-02-21T00:37:34.943Z,28.27
2019-02-21T00:40:04.068Z,30.47
2019-02-21T00:42:32.518Z,31.60
2019-02-21T00:45:01.206Z,32.17
2019-02-21T00:47:29.732Z,31.80
2019-02-21T00:49:58.187Z,27.33
2019-02-21T00:52:27.038Z,29.57
2019-02-21T00:54:55.571Z,27.93
2019-02-21T00:57:24.088Z,28.27
2019-02-21T00:59:52.721Z,29.33
2019-02-21T01:02:21.180Z,30.37
2019-02-21T01:04:49.767Z,31.17
2019-02-21T01:07:18.248Z,31.10
2019-02-21T01:09:46.707Z,32.63
2019-02-21T01:12:15.299Z,28.77
2019-02-21T01:14:43.796Z,29.43
2019-02-21T01:17:12.243Z,32.27
2019-02-21T01:19:40.708Z,33.50
2019-02-21T01:22:09.193Z,29.37
2019-02-21T01:24:46.694Z,30.13
2019-02-21T01:27:15.375Z,27.77
2019-02-21T01:29:43.833Z,29.93
2019-02-21T01:32:12.356Z,33.60
2019-02-21T01:34:40.970Z,29.20
2019-02-21T01:37:09.491Z,29.47
2019-02-21T01:39:37.943Z,30.40
2019-02-21T01:42:06.550Z,28.20
2019-02-21T01:44:35.017Z,29.57
2019-02-21T01:47:03.534Z,30.33
2019-02-21T01:49:32.171Z,32.77
2019-02-21T01:52:00.627Z,28.67
2019-02-21T01:54:29.080Z,24.70
2019-02-21T01:56:58.035Z,30.80
2019-02-21T01:59:26.559Z,30.43
2019-02-21T02:01:55.030Z,29.33
2019-02-21T02:04:23.607Z,29.17
2019-02-21T02:06:52.068Z,25.37
2019-02-21T02:09:39.963Z,28.70
2019-02-21T02:12:08.411Z,27.67
2019-02-21T02:14:36.898Z,27.37
2019-02-21T02:17:05.447Z,30.80
2019-02-21T02:19:33.897Z,27.07
2019-02-21T02:22:02.408Z,27.40
2019-02-21T02:24:30.903Z,27.77
2019-02-21T02:26:59.432Z,24.33
2019-02-21T02:29:28.003Z,25.20
2019-02-21T02:31:57.370Z,24.40
2019-02-21T02:34:26.010Z,23.63
2019-02-21T02:36:54.574Z,28.47
2019-02-21T02:39:23.371Z,28.30
2019-02-21T02:41:52.518Z,26.23
2019-02-21T02:44:21.153Z,29.60
2019-02-21T02:46:50.188Z,29.70
2019-02-21T02:49:18.758Z,28.03
2019-02-21T02:51:47.331Z,26.30
2019-02-21T02:54:15.999Z,30.60
2019-02-21T02:56:44.640Z,27.77
2019-02-21T02:59:13.283Z,27.03
2019-02-21T03:01:41.952Z,30.73
2019-02-21T03:04:10.659Z,28.97
2019-02-21T03:06:39.227Z,30.57
2019-02-21T03:09:09.538Z,22.70
2019-02-21T03:11:38.111Z,26.63
2019-02-21T03:14:06.755Z,25.07
2019-02-21T03:16:35.409Z,28.47
2019-02-21T03:19:04.044Z,27.37
2019-02-21T03:21:32.684Z,27.83
2019-02-21T03:24:01.734Z,29.47
2019-02-21T03:26:30.307Z,34.03
2019-02-21T03:28:58.887Z,32.20
2019-02-21T03:31:27.488Z,29.83
2019-02-21T03:33:56.133Z,30.33
2019-02-21T03:36:24.767Z,29.30
2019-02-21T03:38:53.597Z,32.03
2019-02-21T03:41:22.158Z,28.70
2019-02-21T03:43:50.787Z,33.13
2019-02-21T03:46:19.394Z,30.10
2019-02-21T03:48:48.128Z,34.40
2019-02-21T03:51:16.815Z,32.87
2019-02-21T03:53:45.483Z,38.43
2019-02-21T03:56:14.332Z,32.47
2019-02-21T03:58:43.140Z,28.93
2019-02-21T04:01:11.810Z,31.30
2019-02-21T04:03:40.459Z,29.83
2019-02-21T04:06:09.100Z,27.33
2019-02-21T04:08:38.293Z,31.80
2019-02-21T04:11:06.995Z,31.57
2019-02-21T04:13:35.739Z,33.40
2019-02-21T04:16:04.695Z,32.03
2019-02-21T04:18:33.330Z,27.43
2019-02-21T04:21:01.923Z,26.63
2019-02-21T04:23:30.891Z,28.67
2019-02-21T04:25:59.533Z,28.57
2019-02-21T04:28:28.182Z,30.63
2019-02-21T04:30:56.770Z,28.53
2019-02-21T04:33:25.417Z,28.30
2019-02-21T04:35:54.048Z,28.00
2019-02-21T04:38:22.897Z,23.03
2019-02-21T04:40:51.452Z,26.03
2019-02-21T04:43:20.094Z,30.03
2019-02-21T04:45:48.956Z,26.20
2019-02-21T04:48:17.563Z,26.20
2019-02-21T04:50:46.139Z,31.07
2019-02-21T04:53:14.730Z,33.40
2019-02-21T04:55:43.377Z,26.23
2019-02-21T04:58:11.941Z,29.97
2019-02-21T05:00:40.772Z,28.77
2019-02-21T05:03:09.450Z,28.97
2019-02-21T05:05:38.003Z,27.13
2019-02-21T05:08:06.792Z,26.80
2019-02-21T05:10:35.491Z,26.90
2019-02-21T05:13:04.231Z,30.93
2019-02-21T05:15:33.075Z,29.87
2019-02-21T05:18:01.801Z,25.97
2019-02-21T05:20:30.637Z,26.47
2019-02-21T05:22:59.241Z,29.60
2019-02-21T05:25:27.953Z,25.00
2019-02-21T05:27:57.246Z,23.13
2019-02-21T05:30:26.739Z,22.47
2019-02-21T05:32:56.951Z,28.20
2019-02-21T05:35:32.836Z,24.80
2019-02-21T05:38:07.690Z,25.57
2019-02-21T05:40:55.924Z,27.07
2019-02-21T05:43:31.355Z,28.53
2019-02-21T05:46:17.346Z,26.03
2019-02-21T05:48:53.035Z,32.40
2019-02-21T05:51:25.973Z,31.17
2019-02-21T05:53:56.179Z,28.57
2019-02-21T05:56:26.412Z,31.37
2019-02-21T05:59:02.989Z,30.30
2019-02-21T06:01:39.195Z,29.50
2019-02-21T06:04:09.536Z,29.37
2019-02-21T06:06:54.870Z,28.97
2019-02-21T06:09:31.337Z,30.70
2019-02-21T06:12:07.666Z,32.30
2019-02-21T06:14:50.287Z,27.60
2019-02-21T06:17:29.710Z,31.37
2019-02-21T06:20:02.908Z,29.87
2019-02-21T06:22:38.608Z,29.43
2019-02-21T06:25:29.572Z,30.63
2019-02-21T06:28:00.638Z,29.13
2019-02-21T06:30:43.715Z,28.73
2019-02-21T06:33:12.355Z,29.77
2019-02-21T06:35:41.070Z,26.20
2019-02-21T06:38:09.676Z,29.73
2019-02-21T06:40:38.244Z,29.40
2019-02-21T06:43:06.833Z,30.47
2019-02-21T06:45:35.564Z,27.20
2019-02-21T06:48:04.575Z,27.47
2019-02-21T06:50:33.152Z,28.90
2019-02-21T06:53:01.831Z,31.00
2019-02-21T06:55:30.475Z,26.47
2019-02-21T06:57:59.124Z,32.97
2019-02-21T07:00:27.870Z,30.30
2019-02-21T07:02:56.439Z,28.57
2019-02-21T07:05:25.097Z,26.13
2019-02-21T07:07:53.838Z,24.83
2019-02-21T07:10:22.569Z,27.40
2019-02-21T07:12:51.142Z,27.07
2019-02-21T07:15:19.744Z,30.40
2019-02-21T07:17:49.625Z,25.20
2019-02-21T07:20:18.554Z,25.23
2019-02-21T07:22:47.319Z,29.73
2019-02-21T07:25:17.689Z,30.47
2019-02-21T07:27:46.375Z,24.83
2019-02-21T07:30:20.027Z,24.37
2019-02-21T07:32:45.359Z,21.40
2019-02-21T07:35:14.114Z,21.40
2019-02-21T07:37:42.755Z,23.90
2019-02-21T07:40:19.729Z,22.60
2019-02-21T07:42:41.824Z,20.07
2019-02-21T07:45:10.791Z,23.07
2019-02-21T07:47:39.590Z,22.43
2019-02-21T07:50:08.891Z,22.43
2019-02-21T07:52:37.502Z,21.00
2019-02-21T07:55:10.410Z,24.40
2019-02-21T07:57:38.287Z,21.43
2019-02-21T08:00:10.524Z,19.77
2019-02-21T08:02:39.155Z,23.90
2019-02-21T08:05:08.892Z,21.67
2019-02-21T08:07:37.629Z,21.20
2019-02-21T08:10:09.103Z,25.40
2019-02-21T08:12:40.328Z,23.93
2019-02-21T08:15:11.979Z,25.57
2019-02-21T08:17:40.837Z,22.17
2019-02-21T08:20:11.927Z,25.13
2019-02-21T08:22:40.614Z,23.33
2019-02-21T08:25:10.624Z,24.37
2019-02-21T08:27:39.336Z,22.37
2019-02-21T08:30:11.195Z,22.80
2019-02-21T08:33:00.058Z,25.87
2019-02-21T08:35:30.395Z,25.40
2019-02-21T08:37:59.030Z,26.70
2019-02-21T08:40:27.730Z,21.73
2019-02-21T08:42:56.623Z,24.47
2019-02-21T08:45:25.326Z,18.03
2019-02-21T08:47:53.896Z,20.23
2019-02-21T08:50:22.642Z,25.80
2019-02-21T08:52:51.352Z,21.20
2019-02-21T08:55:19.997Z,20.20
2019-02-21T08:57:49.112Z,21.87
2019-02-21T09:00:17.923Z,20.10
2019-02-21T09:02:46.652Z,23.03
2019-02-21T09:05:15.811Z,21.13
2019-02-21T09:07:46.419Z,22.30
2019-02-21T09:10:15.107Z,21.97
2019-02-21T09:12:47.844Z,23.17
2019-02-21T09:15:17.469Z,20.83
2019-02-21T09:17:46.107Z,20.30
2019-02-21T09:20:14.994Z,23.97
2019-02-21T09:22:43.628Z,24.30
2019-02-21T09:25:13.830Z,23.30
2019-02-21T09:27:42.666Z,20.73
2019-02-21T09:30:18.573Z,22.80
2019-02-21T09:32:47.249Z,22.50
2019-02-21T09:35:15.887Z,20.70
2019-02-21T09:37:44.476Z,23.03
2019-02-21T09:40:14.598Z,23.07
2019-02-21T09:42:43.233Z,21.77
2019-02-21T09:45:16.387Z,22.63
2019-02-21T09:47:45.088Z,14.87
2019-02-21T09:50:14.004Z,24.87
2019-02-21T09:52:42.651Z,23.27
2019-02-21T09:55:16.360Z,23.67
2019-02-21T09:57:45.191Z,22.97
2019-02-21T10:00:19.636Z,26.40
2019-02-21T10:02:48.486Z,23.47
2019-02-21T10:05:17.055Z,22.53
2019-02-21T10:07:45.801Z,19.20
2019-02-21T10:10:16.549Z,18.83
2019-02-21T10:12:45.187Z,23.20
2019-02-21T10:15:15.801Z,24.50
2019-02-21T10:17:44.420Z,21.73
2019-02-21T10:20:15.337Z,21.47
2019-02-21T10:22:43.986Z,24.10
2019-02-21T10:25:15.589Z,19.30
2019-02-21T10:27:44.297Z,21.33
2019-02-21T10:30:15.691Z,20.10
2019-02-21T10:32:44.291Z,19.97
2019-02-21T10:35:13.109Z,19.43
2019-02-21T10:37:41.819Z,20.70
2019-02-21T10:40:13.120Z,20.27
2019-02-21T10:42:41.765Z,19.53
2019-02-21T10:45:16.031Z,18.70
2019-02-21T10:47:44.915Z,19.30
2019-02-21T10:50:21.090Z,20.23
2019-02-21T10:52:50.106Z,22.07
2019-02-21T10:55:18.975Z,20.53
2019-02-21T10:57:47.746Z,19.53
2019-02-21T11:00:28.126Z,18.27
2019-02-21T11:02:56.764Z,25.07
2019-02-21T11:05:25.468Z,20.93
2019-02-21T11:07:54.238Z,17.83
2019-02-21T11:10:27.918Z,21.50
2019-02-21T11:12:56.622Z,22.07
2019-02-21T11:15:26.172Z,21.27
2019-02-21T11:17:54.887Z,21.70
2019-02-21T11:20:25.068Z,20.00
2019-02-21T11:22:53.828Z,24.47
2019-02-21T11:25:22.473Z,19.90
2019-02-21T11:27:51.178Z,21.20
2019-02-21T11:30:21.190Z,24.00
2019-02-21T11:32:49.815Z,21.80
2019-02-21T11:35:18.703Z,22.63
2019-02-21T11:37:47.831Z,23.63
2019-02-21T11:40:17.401Z,24.40
2019-02-21T11:42:46.323Z,24.80
2019-02-21T11:45:17.171Z,22.20
2019-02-21T11:47:45.776Z,25.50
2019-02-21T11:50:18.716Z,25.10
2019-02-21T11:52:47.391Z,23.57
2019-02-21T11:55:26.423Z,23.00
2019-02-21T11:57:55.282Z,21.33
2019-02-21T12:00:26.166Z,19.93
2019-02-21T12:02:54.800Z,20.70
2019-02-21T12:05:31.870Z,21.57
2019-02-21T12:07:54.409Z,26.33
2019-02-21T12:10:23.119Z,23.60
2019-02-21T12:12:51.910Z,19.97
2019-02-21T12:15:20.611Z,17.27
2019-02-21T12:17:49.184Z,20.53
2019-02-21T12:20:19.010Z,18.30
2019-02-21T12:22:48.051Z,17.33
2019-02-21T12:25:18.565Z,25.30
2019-02-21T12:27:47.312Z,18.82
2019-02-21T12:30:17.840Z,21.30
2019-02-21T12:32:46.656Z,18.25
2019-02-21T12:35:15.534Z,20.15
2019-02-21T12:37:44.228Z,20.43
2019-02-21T12:40:21.095Z,21.07
2019-02-21T12:42:49.807Z,20.00
2019-02-21T12:45:23.725Z,20.13
2019-02-21T12:47:54.024Z,26.80
2019-02-21T12:50:22.936Z,19.67
2019-02-21T12:52:51.511Z,21.77
2019-02-21T12:55:27.981Z,19.97
2019-02-21T12:57:50.616Z,21.23
2019-02-21T13:00:20.332Z,22.60
2019-02-21T13:02:48.947Z,20.27
2019-02-21T13:05:17.665Z,21.07
2019-02-21T13:07:46.310Z,20.27
2019-02-21T13:10:23.219Z,21.90
2019-02-21T13:12:51.863Z,21.27
2019-02-21T13:15:20.508Z,21.93
2019-02-21T13:17:50.988Z,18.80
2019-02-21T13:20:19.541Z,19.10
2019-02-21T13:22:48.177Z,21.67
2019-02-21T13:25:20.087Z,22.43
2019-02-21T13:27:48.823Z,20.77
2019-02-21T13:30:18.122Z,22.73
2019-02-21T13:32:46.863Z,19.53
2019-02-21T13:35:15.574Z,18.57
2019-02-21T13:37:44.290Z,17.70
2019-02-21T13:40:20.842Z,18.90
2019-02-21T13:42:47.840Z,25.30
2019-02-21T13:45:18.106Z,19.20
2019-02-21T13:47:47.014Z,22.97
2019-02-21T13:50:17.422Z,21.00
2019-02-21T13:52:46.050Z,21.53
2019-02-21T13:55:14.971Z,20.53
2019-02-21T13:57:43.680Z,16.63
2019-02-21T14:00:15.161Z,15.33
2019-02-21T14:02:43.988Z,19.83
2019-02-21T14:05:12.633Z,19.07
2019-02-21T14:07:41.271Z,21.77
2019-02-21T14:10:12.183Z,24.47
2019-02-21T14:12:40.895Z,24.43
2019-02-21T14:15:14.952Z,21.60
2019-02-21T14:17:43.727Z,20.77
2019-02-21T14:20:12.548Z,26.73
2019-02-21T14:22:41.179Z,21.57
2019-02-21T14:25:10.932Z,20.30
2019-02-21T14:27:39.755Z,14.33
2019-02-21T14:30:11.583Z,19.37
2019-02-21T14:32:40.408Z,17.67
2019-02-21T14:35:11.305Z,14.60
2019-02-21T14:37:39.960Z,15.37
2019-02-21T14:40:13.452Z,15.67
2019-02-21T14:42:42.162Z,17.90
2019-02-21T14:45:15.956Z,16.07
2019-02-21T14:47:44.789Z,17.20
2019-02-21T14:50:13.597Z,12.63
2019-02-21T14:52:42.318Z,17.07
2019-02-21T14:55:15.405Z,15.80
2019-02-21T14:57:44.052Z,16.63
2019-02-21T15:00:18.203Z,18.73
2019-02-21T15:02:46.964Z,16.27
2019-02-21T15:05:15.819Z,17.33
2019-02-21T15:07:44.466Z,22.17
2019-02-21T15:10:13.293Z,17.17
2019-02-21T15:12:42.031Z,14.43
2019-02-21T15:15:13.415Z,19.00
2019-02-21T15:17:41.955Z,20.80
2019-02-21T15:20:12.574Z,22.27
2019-02-21T15:22:41.208Z,21.00
2019-02-21T15:25:10.223Z,16.40
2019-02-21T15:27:41.663Z,19.83
2019-02-21T15:30:15.869Z,14.33
2019-02-21T15:32:45.068Z,18.10
2019-02-21T15:35:14.045Z,16.47
2019-02-21T15:37:45.097Z,21.10
2019-02-21T15:40:13.712Z,15.73
2019-02-21T15:42:42.358Z,17.53
2019-02-21T15:45:24.235Z,15.70
2019-02-21T15:47:53.262Z,19.17
2019-02-21T15:50:21.958Z,19.50
2019-02-21T15:52:52.310Z,19.20
2019-02-21T15:55:21.932Z,17.57
2019-02-21T15:57:50.615Z,15.73
2019-02-21T16:00:20.803Z,18.17
2019-02-21T16:02:49.441Z,19.43
2019-02-21T16:05:18.156Z,16.30
2019-02-21T16:07:46.902Z,19.00
2019-02-21T16:10:28.091Z,17.10
2019-02-21T16:12:57.119Z,18.00
2019-02-21T16:15:26.107Z,15.20
2019-02-21T16:17:54.747Z,16.53
2019-02-21T16:20:23.618Z,20.97
2019-02-21T16:22:52.253Z,16.73
2019-02-21T16:25:26.201Z,18.20
2019-02-21T16:27:55.564Z,14.97
2019-02-21T16:30:24.560Z,18.50
2019-02-21T16:32:53.263Z,18.57
2019-02-21T16:35:22.032Z,15.17
2019-02-21T16:37:50.665Z,15.00
2019-02-21T16:40:22.335Z,23.00
2019-02-21T16:42:51.082Z,20.17
2019-02-21T16:45:23.354Z,22.20
2019-02-21T16:47:52.167Z,18.30
2019-02-21T16:50:29.397Z,22.63
2019-02-21T16:52:51.297Z,23.50
2019-02-21T16:55:24.208Z,24.23
2019-02-21T16:57:52.795Z,19.27
2019-02-21T17:00:22.807Z,20.13
2019-02-21T17:02:51.410Z,19.20
2019-02-21T17:05:20.567Z,19.77
2019-02-21T17:07:49.290Z,21.13
2019-02-21T17:10:18.099Z,21.30
2019-02-21T17:12:46.786Z,22.07
2019-02-21T17:15:16.491Z,18.33
2019-02-21T17:17:45.203Z,19.83
2019-02-21T17:20:16.450Z,17.13
2019-02-21T17:22:45.095Z,18.37
2019-02-21T17:25:15.392Z,19.40
2019-02-21T17:27:45.233Z,18.00
2019-02-21T17:30:17.660Z,19.03
2019-02-21T17:32:47.874Z,20.97
2019-02-21T17:35:16.556Z,17.27
2019-02-21T17:37:45.367Z,23.53
2019-02-21T17:40:19.267Z,26.40
2019-02-21T17:42:48.154Z,19.87
2019-02-21T17:45:16.866Z,20.30
2019-02-21T17:47:45.572Z,16.07
2019-02-21T17:50:17.106Z,17.97
2019-02-21T17:52:45.815Z,23.73
2019-02-21T17:55:15.435Z,21.27
2019-02-21T17:57:44.159Z,19.07
2019-02-21T18:00:17.152Z,24.90
2019-02-21T18:02:45.774Z,22.63
2019-02-21T18:05:14.471Z,28.43
2019-02-21T18:07:43.095Z,26.97
2019-02-21T18:10:14.575Z,26.73
2019-02-21T18:12:43.250Z,23.83
2019-02-21T18:15:14.156Z,31.73
2019-02-21T18:17:42.871Z,34.10
2019-02-21T18:20:15.448Z,25.13
2019-02-21T18:22:44.246Z,27.13
2019-02-21T18:25:31.254Z,25.03
2019-02-21T18:27:59.891Z,25.07
2019-02-21T18:30:28.607Z,33.13
2019-02-21T18:32:57.343Z,39.53
2019-02-21T18:35:26.052Z,30.90
2019-02-21T18:37:54.964Z,28.40
2019-02-21T18:40:25.979Z,29.20
2019-02-21T18:42:54.690Z,33.13
2019-02-21T18:45:23.395Z,28.40
2019-02-21T18:47:52.559Z,31.97
2019-02-21T18:50:21.262Z,25.33
2019-02-21T18:52:49.907Z,28.33
2019-02-21T18:55:18.739Z,29.67
2019-02-21T18:57:47.380Z,22.27
2019-02-21T19:00:24.759Z,25.43
2019-02-21T19:02:53.462Z,28.97
2019-02-21T19:05:22.666Z,30.30
2019-02-21T19:08:03.963Z,25.00
2019-02-21T19:10:22.492Z,35.90
2019-02-21T19:12:51.685Z,30.83
2019-02-21T19:15:21.320Z,31.47
2019-02-21T19:17:49.965Z,26.43
2019-02-21T19:20:19.779Z,38.17
2019-02-21T19:22:48.463Z,43.40
2019-02-21T19:25:17.165Z,38.53
2019-02-21T19:27:45.874Z,34.77
2019-02-21T19:30:49.023Z,33.50
2019-02-21T19:33:18.015Z,39.13
2019-02-21T19:35:48.463Z,37.57
2019-02-21T19:38:17.094Z,33.23
2019-02-21T19:40:45.727Z,35.63
2019-02-21T19:43:17.508Z,31.30
2019-02-21T19:45:46.429Z,29.50
2019-02-21T19:48:15.090Z,39.20
2019-02-21T19:50:43.764Z,31.03
2019-02-21T19:53:14.449Z,32.07
2019-02-21T19:55:43.046Z,31.20
2019-02-21T19:58:11.824Z,30.37
2019-02-21T20:00:40.898Z,29.90
2019-02-21T20:03:09.601Z,25.73
2019-02-21T20:05:38.316Z,25.07
2019-02-21T20:08:08.999Z,25.07
2019-02-21T20:10:37.452Z,27.97
2019-02-21T20:13:08.092Z,36.93
2019-02-21T20:15:37.174Z,31.10
2019-02-21T20:18:06.101Z,26.53
2019-02-21T20:20:34.861Z,28.40
2019-02-21T20:23:03.669Z,27.93
2019-02-21T20:25:32.393Z,26.07
2019-02-21T20:28:01.174Z,30.27
2019-02-21T20:30:30.314Z,35.00
2019-02-21T20:32:58.971Z,31.90
2019-02-21T20:35:27.683Z,33.50
2019-02-21T20:37:56.409Z,31.63
2019-02-21T20:40:25.133Z,31.30
2019-02-21T20:42:53.915Z,29.07
2019-02-21T20:45:24.715Z,24.33
2019-02-21T20:47:52.875Z,27.50
2019-02-21T20:50:21.582Z,32.20
2019-02-21T20:52:50.668Z,27.00
2019-02-21T20:55:19.371Z,26.40
2019-02-21T20:57:48.015Z,28.17
2019-02-21T21:00:18.504Z,24.53
2019-02-21T21:02:47.206Z,30.53
2019-02-21T21:05:16.208Z,30.50
2019-02-21T21:07:45.035Z,34.73
2019-02-21T21:10:15.611Z,37.27
2019-02-21T21:12:44.250Z,30.07
2019-02-21T21:15:14.198Z,29.40
2019-02-21T21:17:42.901Z,37.57
2019-02-21T21:20:17.115Z,33.63
2019-02-21T21:22:44.008Z,33.60
2019-02-21T21:25:15.019Z,33.27
2019-02-21T21:27:43.819Z,33.00
2019-02-21T21:30:14.667Z,34.47
2019-02-21T21:32:43.380Z,34.63
2019-02-21T21:35:12.094Z,41.27
2019-02-21T21:37:40.831Z,34.83
2019-02-21T21:40:12.556Z,35.10
2019-02-21T21:42:41.255Z,38.13
2019-02-21T21:45:12.743Z,33.37
2019-02-21T21:47:41.382Z,41.07
2019-02-21T21:50:12.691Z,44.80
2019-02-21T21:52:41.435Z,36.47
2019-02-21T21:55:10.144Z,40.27
2019-02-21T21:57:38.847Z,47.50
2019-02-21T22:00:22.195Z,37.03
2019-02-21T22:02:51.304Z,40.53
2019-02-21T22:05:20.206Z,47.50
2019-02-21T22:07:49.683Z,33.93
2019-02-21T22:10:18.507Z,44.83
2019-02-21T22:12:47.260Z,44.57
2019-02-21T22:15:18.107Z,48.20
2019-02-21T22:17:46.954Z,38.37
2019-02-21T22:20:15.691Z,38.17
2019-02-21T22:22:44.520Z,35.57
2019-02-21T22:25:14.897Z,39.87
2019-02-21T22:27:43.605Z,38.43
2019-02-21T22:30:14.983Z,43.43
2019-02-21T22:32:43.691Z,36.67
2019-02-21T22:35:12.591Z,41.27
2019-02-21T22:37:41.155Z,39.23
2019-02-21T22:40:12.076Z,40.47
2019-02-21T22:42:40.711Z,41.83
2019-02-21T22:45:10.391Z,38.83
2019-02-21T22:47:39.105Z,43.37
2019-02-21T22:50:10.619Z,38.67
2019-02-21T22:52:39.818Z,39.80
2019-02-21T22:55:10.099Z,36.73
2019-02-21T22:57:39.135Z,33.50
2019-02-21T23:00:31.941Z,36.43
2019-02-21T23:03:01.449Z,35.80
2019-02-21T23:05:55.984Z,34.73
2019-02-21T23:08:30.750Z,36.03
2019-02-21T23:10:59.317Z,39.03
2019-02-21T23:13:27.925Z,31.97
2019-02-21T23:15:56.563Z,34.53
2019-02-21T23:18:25.271Z,35.30
2019-02-21T23:20:54.443Z,33.57
2019-02-21T23:23:23.089Z,31.63
2019-02-21T23:25:51.714Z,33.10
2019-02-21T23:28:20.854Z,31.97
2019-02-21T23:30:49.434Z,26.07
2019-02-21T23:33:18.059Z,30.03
2019-02-21T23:35:46.669Z,30.47
2019-02-21T23:38:15.295Z,28.77
2019-02-21T23:40:44.007Z,26.30
2019-02-21T23:43:12.754Z,29.60
2019-02-21T23:45:41.386Z,32.10
2019-02-21T23:48:09.947Z,29.83
2019-02-21T23:50:38.651Z,31.00
2019-02-21T23:53:07.212Z,28.60
2019-02-21T23:55:35.786Z,31.23
2019-02-21T23:58:04.536Z,28.23
